createdAt,value
2022-08-25T00:02:19.704Z,24.80
2022-08-25T00:05:07.860Z,23.92
2022-08-25T00:07:50.658Z,23.05
2022-08-25T00:10:39.875Z,24.40
2022-08-25T00:13:21.614Z,23.42
2022-08-25T00:16:13.974Z,21.85
2022-08-25T00:19:01.072Z,23.10
2022-08-25T00:21:43.796Z,22.25
2022-08-25T00:24:35.646Z,22.63
2022-08-25T00:27:24.006Z,23.05
2022-08-25T00:30:08.319Z,26.27
2022-08-25T00:32:57.027Z,20.90
2022-08-25T00:35:47.643Z,22.90
2022-08-25T00:38:29.755Z,21.48
2022-08-25T00:41:18.661Z,25.50
2022-08-25T00:44:10.975Z,23.42
2022-08-25T00:46:58.691Z,23.35
2022-08-25T00:49:51.146Z,21.25
2022-08-25T00:53:01.648Z,23.92
2022-08-25T00:55:50.640Z,26.90
2022-08-25T00:58:42.536Z,21.20
2022-08-25T01:01:31.624Z,19.38
2022-08-25T01:04:13.887Z,18.70
2022-08-25T01:07:05.672Z,16.27
2022-08-25T01:10:00.553Z,16.55
2022-08-25T01:12:49.729Z,12.80
2022-08-25T01:15:31.964Z,13.60
2022-08-25T01:18:20.704Z,12.07
2022-08-25T01:21:05.383Z,10.85
2022-08-25T01:23:55.676Z,11.05
2022-08-25T01:26:40.844Z,10.30
2022-08-25T01:29:29.555Z,9.23
2022-08-25T01:32:16.043Z,12.05
2022-08-25T01:35:04.574Z,10.90
2022-08-25T01:37:46.924Z,12.63
2022-08-25T01:40:35.706Z,9.57
2022-08-25T01:43:28.816Z,8.38
2022-08-25T01:46:10.771Z,11.48
2022-08-25T01:49:02.747Z,9.18
2022-08-25T01:52:08.637Z,10.00
2022-08-25T01:54:57.630Z,6.93
2022-08-25T01:57:39.797Z,6.40
2022-08-25T02:00:29.573Z,8.88
2022-08-25T02:03:17.556Z,7.80
2022-08-25T02:06:08.669Z,7.80
2022-08-25T02:08:50.946Z,6.53
2022-08-25T02:11:40.656Z,8.15
2022-08-25T02:14:30.702Z,6.28
2022-08-25T02:17:18.918Z,5.22
2022-08-25T02:20:00.636Z,6.22
2022-08-25T02:22:56.693Z,6.10
2022-08-25T02:25:46.635Z,5.80
2022-08-25T02:28:35.692Z,5.72
2022-08-25T02:31:17.976Z,6.07
2022-08-25T02:34:06.648Z,6.97
2022-08-25T02:36:49.920Z,5.28
2022-08-25T02:39:38.664Z,7.05
2022-08-25T02:42:20.925Z,7.20
2022-08-25T02:45:09.639Z,6.63
2022-08-25T02:47:51.813Z,12.55
2022-08-25T02:50:40.704Z,8.65
2022-08-25T02:53:22.808Z,6.40
2022-08-25T02:56:13.062Z,6.15
2022-08-25T02:58:56.794Z,6.63
2022-08-25T03:01:45.603Z,7.25
2022-08-25T03:04:28.376Z,8.40
2022-08-25T03:07:18.621Z,6.10
2022-08-25T03:10:03.909Z,9.63
2022-08-25T03:12:53.546Z,6.13
2022-08-25T03:15:38.901Z,8.65
2022-08-25T03:18:27.558Z,7.18
2022-08-25T03:21:10.923Z,5.40
2022-08-25T03:23:59.649Z,7.68
2022-08-25T03:26:59.832Z,8.43
2022-08-25T03:29:50.638Z,6.70
2022-08-25T03:32:39.646Z,5.70
2022-08-25T03:35:21.731Z,7.55
2022-08-25T03:38:12.652Z,10.05
2022-08-25T03:40:55.807Z,7.43
2022-08-25T03:43:44.663Z,6.32
2022-08-25T03:46:36.591Z,8.80
2022-08-25T03:49:28.682Z,7.20
2022-08-25T03:52:12.754Z,8.15
2022-08-25T03:55:01.529Z,8.02
2022-08-25T03:57:50.636Z,7.28
2022-08-25T04:00:32.940Z,11.90
2022-08-25T04:03:21.626Z,7.07
2022-08-25T04:06:10.642Z,9.15
2022-08-25T04:09:00.642Z,9.98
2022-08-25T04:11:44.072Z,8.50
2022-08-25T04:14:33.618Z,8.45
2022-08-25T04:17:15.921Z,10.35
2022-08-25T04:20:04.512Z,12.93
2022-08-25T04:22:47.003Z,11.10
2022-08-25T04:25:35.615Z,8.50
2022-08-25T04:28:18.821Z,9.35
2022-08-25T04:31:07.659Z,9.40
2022-08-25T04:33:49.949Z,10.50
2022-08-25T04:36:38.524Z,9.95
2022-08-25T04:39:21.840Z,11.63
2022-08-25T04:42:11.614Z,12.43
2022-08-25T04:45:07.538Z,12.20
2022-08-25T04:47:56.623Z,12.98
2022-08-25T04:50:45.544Z,12.88
2022-08-25T04:53:34.605Z,14.00
2022-08-25T04:56:35.569Z,15.52
2022-08-25T04:59:30.080Z,18.83
2022-08-25T05:02:14.670Z,16.33
2022-08-25T05:04:56.965Z,17.27
2022-08-25T05:07:45.655Z,15.25
2022-08-25T05:10:33.931Z,13.73
2022-08-25T05:13:15.629Z,22.08
2022-08-25T05:16:00.444Z,26.33
2022-08-25T05:18:50.633Z,21.50
2022-08-25T05:21:39.953Z,16.35
2022-08-25T05:24:21.622Z,16.98
2022-08-25T05:27:24.551Z,13.27
2022-08-25T05:30:14.530Z,15.52
2022-08-25T05:32:56.817Z,16.27
2022-08-25T05:35:48.672Z,18.25
2022-08-25T05:38:32.802Z,16.52
2022-08-25T05:41:26.644Z,18.98
2022-08-25T05:44:21.638Z,13.07
2022-08-25T05:47:10.936Z,16.63
2022-08-25T05:49:52.538Z,15.48
2022-08-25T05:52:42.731Z,15.50
2022-08-25T05:55:24.945Z,16.55
2022-08-25T05:58:14.642Z,19.37
2022-08-25T06:01:19.774Z,16.15
2022-08-25T06:04:08.635Z,14.35
2022-08-25T06:07:00.542Z,13.98
2022-08-25T06:09:43.169Z,17.10
2022-08-25T06:12:32.566Z,16.45
2022-08-25T06:15:29.600Z,15.07
2022-08-25T06:18:11.921Z,15.68
2022-08-25T06:21:00.531Z,14.35
2022-08-25T06:23:42.972Z,17.30
2022-08-25T06:26:31.562Z,20.05
2022-08-25T06:29:15.070Z,15.43
2022-08-25T06:34:52.672Z,13.77
2022-08-25T06:37:41.639Z,13.02
2022-08-25T06:40:24.236Z,15.27
2022-08-25T06:43:16.619Z,14.60
2022-08-25T06:46:11.501Z,13.65
2022-08-25T06:49:08.543Z,15.77
2022-08-25T06:51:57.665Z,15.27
2022-08-25T06:54:39.917Z,18.63
2022-08-25T06:57:30.650Z,17.58
2022-08-25T07:00:14.879Z,13.52
2022-08-25T07:03:02.621Z,14.35
2022-08-25T07:05:51.542Z,13.00
2022-08-25T07:08:40.701Z,13.82
2022-08-25T07:11:23.985Z,11.93
2022-08-25T07:14:15.546Z,17.17
2022-08-25T07:16:57.943Z,18.17
2022-08-25T07:19:48.644Z,19.48
2022-08-25T07:22:42.042Z,18.58
2022-08-25T07:25:31.619Z,12.45
2022-08-25T07:28:13.934Z,16.92
2022-08-25T07:31:02.585Z,17.60
2022-08-25T07:34:05.260Z,12.63
2022-08-25T07:36:54.660Z,13.88
2022-08-25T07:39:38.037Z,14.75
2022-08-25T07:42:26.626Z,12.70
2022-08-25T07:45:09.021Z,18.85
2022-08-25T07:47:59.616Z,14.32
2022-08-25T07:50:50.641Z,13.13
2022-08-25T07:53:40.533Z,13.52
2022-08-25T07:56:24.940Z,16.98
2022-08-25T07:59:13.984Z,16.23
2022-08-25T08:01:57.949Z,13.68
2022-08-25T08:04:46.637Z,15.65
2022-08-25T08:07:43.426Z,15.20
2022-08-25T08:10:53.854Z,17.52
2022-08-25T08:13:42.530Z,13.18
2022-08-25T08:16:34.606Z,18.88
2022-08-25T08:19:23.539Z,13.32
2022-08-25T08:22:14.539Z,13.52
2022-08-25T08:24:56.918Z,14.23
2022-08-25T08:27:46.622Z,14.55
2022-08-25T08:30:35.719Z,21.10
2022-08-25T08:33:24.965Z,16.40
2022-08-25T08:36:09.739Z,11.73
2022-08-25T08:38:51.742Z,15.50
2022-08-25T08:42:10.833Z,17.92
2022-08-25T08:44:53.820Z,14.32
2022-08-25T08:48:27.559Z,11.30
2022-08-25T08:51:32.908Z,15.27
2022-08-25T08:54:36.272Z,18.35
2022-08-25T08:57:25.861Z,19.63
2022-08-25T09:00:16.639Z,17.00
2022-08-25T09:03:45.609Z,22.52
2022-08-25T09:06:55.621Z,16.15
2022-08-25T09:09:38.568Z,17.23
2022-08-25T09:12:30.526Z,13.98
2022-08-25T09:16:23.270Z,15.18
2022-08-25T09:19:33.934Z,16.40
2022-08-25T09:22:35.649Z,15.32
2022-08-25T09:25:52.419Z,12.27
2022-08-25T09:28:42.906Z,16.67
2022-08-25T09:31:41.711Z,9.82
2022-08-25T09:34:29.676Z,19.13
2022-08-25T09:37:18.532Z,11.93
2022-08-25T09:40:09.195Z,22.70
2022-08-25T09:43:02.758Z,10.63
2022-08-25T09:45:55.866Z,12.30
2022-08-25T09:48:58.615Z,14.98
2022-08-25T09:51:42.784Z,11.45
2022-08-25T09:54:44.193Z,15.75
2022-08-25T09:57:38.782Z,13.07
2022-08-25T10:00:47.577Z,18.60
2022-08-25T10:03:29.980Z,11.05
2022-08-25T10:06:30.573Z,13.85
2022-08-25T10:09:26.231Z,11.43
2022-08-25T10:12:19.596Z,13.77
2022-08-25T10:15:29.841Z,18.60
2022-08-25T10:18:41.685Z,14.95
2022-08-25T10:21:33.058Z,13.23
2022-08-25T10:24:20.585Z,8.68
2022-08-25T10:27:28.385Z,12.68
2022-08-25T10:30:32.742Z,12.50
2022-08-25T10:33:14.954Z,14.23
2022-08-25T10:36:25.578Z,11.93
2022-08-25T10:39:34.234Z,11.55
2022-08-25T10:42:30.681Z,12.13
2022-08-25T10:45:34.436Z,8.13
2022-08-25T10:48:26.796Z,11.30
2022-08-25T10:51:19.624Z,8.98
2022-08-25T10:54:30.649Z,15.43
2022-08-25T10:57:28.476Z,10.73
2022-08-25T11:00:31.833Z,12.80
2022-08-25T11:03:19.076Z,13.10
2022-08-25T11:06:27.532Z,12.32
2022-08-25T11:09:16.144Z,11.05
2022-08-25T11:12:18.639Z,12.38
2022-08-25T11:18:14.515Z,15.25
2022-08-25T11:21:11.918Z,14.65
2022-08-25T11:24:13.865Z,15.95
2022-08-25T11:27:03.951Z,17.35
2022-08-25T11:30:06.035Z,12.32
2022-08-25T11:32:52.980Z,16.20
2022-08-25T11:35:51.623Z,14.00
2022-08-25T11:38:40.118Z,14.70
2022-08-25T11:42:09.693Z,15.18
2022-08-25T11:45:18.941Z,11.60
2022-08-25T11:48:20.636Z,13.35
2022-08-25T11:51:11.144Z,10.77
2022-08-25T11:54:28.822Z,19.48
2022-08-25T11:57:28.967Z,13.70
2022-08-25T12:00:22.849Z,14.95
2022-08-25T12:03:43.803Z,16.35
2022-08-25T12:06:33.762Z,13.10
2022-08-25T12:09:27.781Z,13.63
2022-08-25T12:12:39.702Z,16.60
2022-08-25T12:15:41.398Z,17.80
2022-08-25T12:18:45.752Z,13.68
2022-08-25T12:21:34.227Z,19.40
2022-08-25T12:24:27.681Z,15.70
2022-08-25T12:27:34.654Z,19.10
2022-08-25T12:30:59.898Z,17.63
2022-08-25T12:34:15.680Z,13.75
2022-08-25T12:37:07.335Z,16.50
2022-08-25T12:40:20.635Z,13.25
2022-08-25T12:43:21.677Z,11.05
2022-08-25T12:46:39.682Z,16.48
2022-08-25T12:49:41.044Z,16.73
2022-08-25T12:52:35.698Z,17.80
2022-08-25T12:55:31.594Z,20.45
2022-08-25T12:58:38.662Z,14.63
2022-08-25T13:02:07.218Z,17.35
2022-08-25T13:05:05.121Z,15.38
2022-08-25T13:08:19.665Z,21.77
2022-08-25T13:11:12.672Z,20.30
2022-08-25T13:16:47.663Z,22.30
2022-08-25T13:19:36.649Z,19.98
2022-08-25T13:22:22.006Z,19.00
2022-08-25T13:25:13.631Z,17.98
2022-08-25T13:28:03.070Z,20.05
2022-08-25T13:30:51.530Z,19.65
2022-08-25T13:33:40.761Z,17.30
2022-08-25T13:36:46.972Z,18.63
2022-08-25T13:39:55.937Z,19.52
2022-08-25T13:42:45.131Z,13.73
2022-08-25T13:45:44.791Z,19.05
2022-08-25T13:48:39.449Z,17.10
2022-08-25T13:51:41.544Z,32.22
2022-08-25T13:54:46.098Z,17.00
2022-08-25T13:57:44.612Z,18.38
2022-08-25T14:00:53.690Z,19.50
2022-08-25T14:03:55.299Z,19.13
2022-08-25T14:06:44.846Z,18.58
2022-08-25T14:09:37.788Z,23.60
2022-08-25T14:12:44.869Z,23.23
2022-08-25T14:15:33.950Z,16.33
2022-08-25T14:18:27.147Z,16.65
2022-08-25T14:21:12.502Z,20.98
2022-08-25T14:24:01.573Z,23.13
2022-08-25T14:26:53.958Z,20.63
2022-08-25T14:29:44.538Z,23.23
2022-08-25T14:32:32.901Z,28.35
2022-08-25T14:35:17.462Z,17.70
2022-08-25T14:37:59.675Z,23.30
2022-08-25T14:40:48.568Z,21.77
2022-08-25T14:43:39.397Z,23.65
2022-08-25T14:46:31.539Z,23.52
2022-08-25T14:49:27.627Z,19.48
2022-08-25T14:52:22.814Z,23.58
2022-08-25T14:55:04.948Z,22.95
2022-08-25T14:57:53.692Z,26.05
2022-08-25T15:00:50.910Z,29.65
2022-08-25T15:03:50.663Z,22.40
2022-08-25T15:06:39.751Z,26.55
2022-08-25T15:09:33.532Z,28.48
2022-08-25T15:12:46.197Z,23.70
2022-08-25T15:15:34.536Z,25.20
2022-08-25T15:18:18.609Z,27.40
2022-08-25T15:21:09.624Z,24.17
2022-08-25T15:23:56.206Z,23.98
2022-08-25T15:26:45.660Z,28.92
2022-08-25T15:29:31.424Z,25.08
2022-08-25T15:32:21.648Z,21.15
2022-08-25T15:35:03.922Z,27.27
2022-08-25T15:37:55.620Z,27.85
2022-08-25T15:40:40.117Z,25.85
2022-08-25T15:43:28.609Z,31.38
2022-08-25T15:46:17.825Z,24.77
2022-08-25T15:49:07.743Z,25.55
2022-08-25T15:51:49.905Z,26.65
2022-08-25T15:54:39.619Z,25.67
2022-08-25T15:57:24.288Z,28.25
2022-08-25T16:00:16.549Z,29.05
2022-08-25T16:03:11.493Z,23.20
2022-08-25T16:06:06.777Z,22.95
2022-08-25T16:08:55.987Z,29.30
2022-08-25T16:11:41.626Z,22.90
2022-08-25T16:14:23.746Z,23.45
2022-08-25T16:17:13.602Z,23.17
2022-08-25T16:20:02.624Z,24.48
2022-08-25T16:22:45.942Z,24.17
2022-08-25T16:25:36.730Z,27.10
2022-08-25T16:28:28.538Z,28.98
2022-08-25T16:31:19.673Z,25.95
2022-08-25T16:34:09.607Z,21.60
2022-08-25T16:37:02.579Z,20.37
2022-08-25T16:39:46.823Z,22.58
2022-08-25T16:42:35.685Z,23.25
2022-08-25T16:45:26.771Z,23.98
2022-08-25T16:48:09.098Z,27.65
2022-08-25T16:50:57.552Z,22.33
2022-08-25T16:53:58.380Z,23.48
2022-08-25T16:56:50.782Z,25.05
2022-08-25T16:59:58.046Z,25.75
2022-08-25T17:02:50.685Z,18.75
2022-08-25T17:06:25.592Z,23.13
2022-08-25T17:09:32.985Z,26.05
2022-08-25T17:12:34.676Z,29.35
2022-08-25T17:15:36.208Z,23.25
2022-08-25T17:21:24.363Z,24.42
2022-08-25T17:24:06.937Z,22.73
2022-08-25T17:26:58.587Z,22.33
2022-08-25T17:29:41.903Z,21.38
2022-08-25T17:32:30.718Z,24.77
2022-08-25T17:35:19.590Z,24.33
2022-08-25T17:38:09.609Z,21.55
2022-08-25T17:40:51.952Z,23.17
2022-08-25T17:43:43.622Z,20.23
2022-08-25T17:46:32.725Z,24.02
2022-08-25T17:49:16.036Z,23.35
2022-08-25T17:52:04.636Z,20.25
2022-08-25T17:54:48.618Z,21.70
2022-08-25T17:57:39.778Z,22.65
2022-08-25T18:00:23.858Z,24.35
2022-08-25T18:03:14.514Z,20.08
2022-08-25T18:06:05.604Z,20.13
2022-08-25T18:09:01.608Z,24.00
2022-08-25T18:11:51.602Z,25.70
2022-08-25T18:14:34.599Z,27.45
2022-08-25T18:17:21.845Z,22.17
2022-08-25T18:20:13.595Z,21.02
2022-08-25T18:22:59.023Z,21.25
2022-08-25T18:25:47.738Z,25.15
2022-08-25T18:28:37.912Z,26.00
2022-08-25T18:31:20.767Z,24.02
2022-08-25T18:34:04.490Z,23.58
2022-08-25T18:36:54.612Z,22.73
2022-08-25T18:39:55.147Z,21.55
2022-08-25T18:42:44.734Z,20.00
2022-08-25T18:45:31.201Z,22.48
2022-08-25T18:48:20.699Z,28.75
2022-08-25T18:51:10.426Z,19.73
2022-08-25T18:53:54.617Z,22.75
2022-08-25T18:56:49.640Z,26.55
2022-08-25T18:59:31.742Z,22.65
2022-08-25T19:02:20.619Z,23.67
2022-08-25T19:05:07.473Z,20.45
2022-08-25T19:07:59.760Z,22.70
2022-08-25T19:10:59.572Z,24.58
2022-08-25T19:13:49.761Z,21.10
2022-08-25T19:16:42.130Z,23.02
2022-08-25T19:19:32.649Z,23.75
2022-08-25T19:22:40.597Z,26.75
2022-08-25T19:25:32.942Z,19.23
2022-08-25T19:28:20.101Z,22.85
2022-08-25T19:31:11.793Z,22.95
2022-08-25T19:33:55.929Z,24.77
2022-08-25T19:36:45.526Z,23.65
2022-08-25T19:39:28.598Z,24.92
2022-08-25T19:42:37.195Z,27.33
2022-08-25T19:45:21.028Z,21.67
2022-08-25T19:48:13.512Z,24.02
2022-08-25T19:50:56.323Z,21.50
2022-08-25T19:53:45.505Z,26.88
2022-08-25T19:56:27.920Z,26.30
2022-08-25T19:59:16.500Z,24.63
2022-08-25T20:02:00.955Z,21.70
2022-08-25T20:04:51.716Z,26.30
2022-08-25T20:07:37.228Z,24.85
2022-08-25T20:10:39.424Z,25.63
2022-08-25T20:13:29.935Z,27.50
2022-08-25T20:16:12.553Z,26.73
2022-08-25T20:19:02.616Z,26.58
2022-08-25T20:21:46.045Z,31.83
2022-08-25T20:24:56.076Z,29.13
2022-08-25T20:27:43.138Z,26.33
2022-08-25T20:30:37.584Z,28.20
2022-08-25T20:33:26.646Z,28.67
2022-08-25T20:36:15.598Z,26.27
2022-08-25T20:38:59.059Z,31.30
2022-08-25T20:41:48.638Z,33.63
2022-08-25T20:44:42.269Z,27.15
2022-08-25T20:47:24.877Z,26.55
2022-08-25T20:50:13.598Z,24.13
2022-08-25T20:53:00.097Z,23.27
2022-08-25T20:55:50.791Z,26.00
2022-08-25T20:58:39.291Z,28.90
2022-08-25T21:01:49.581Z,24.88
2022-08-25T21:04:49.985Z,23.15
2022-08-25T21:07:35.710Z,21.45
2022-08-25T21:10:24.861Z,28.98
2022-08-25T21:13:16.570Z,26.65
2022-08-25T21:18:56.771Z,29.17
2022-08-25T21:21:49.631Z,24.60
2022-08-25T21:24:42.544Z,27.08
2022-08-25T21:27:36.070Z,30.20
2022-08-25T21:30:22.805Z,24.92
2022-08-25T21:33:14.629Z,28.00
2022-08-25T21:35:56.781Z,27.25
2022-08-25T21:38:45.583Z,29.77
2022-08-25T21:41:31.924Z,27.85
2022-08-25T21:44:21.517Z,29.45
2022-08-25T21:47:04.248Z,29.63
2022-08-25T21:49:53.629Z,34.55
2022-08-25T21:52:35.882Z,32.63
2022-08-25T21:55:24.618Z,28.23
2022-08-25T21:58:13.515Z,31.13
2022-08-25T22:01:02.606Z,33.17
2022-08-25T22:03:47.227Z,36.15
2022-08-25T22:06:37.604Z,34.60
2022-08-25T22:09:28.569Z,40.58
2022-08-25T22:12:25.466Z,33.47
2022-08-25T22:15:23.498Z,34.50
2022-08-25T22:18:05.932Z,30.80
2022-08-25T22:20:54.590Z,39.35
2022-08-25T22:23:44.080Z,36.40
2022-08-25T22:26:33.518Z,36.50
2022-08-25T22:29:25.273Z,34.75
2022-08-25T22:32:07.912Z,32.03
2022-08-25T22:34:56.570Z,36.85
2022-08-25T22:37:45.489Z,37.15
2022-08-25T22:40:34.672Z,33.85
2022-08-25T22:43:18.333Z,39.45
2022-08-25T22:46:12.872Z,31.38
2022-08-25T22:48:54.959Z,34.20
2022-08-25T22:51:44.499Z,36.65
2022-08-25T22:54:35.672Z,44.28
2022-08-25T22:57:24.903Z,34.72
2022-08-25T23:00:06.649Z,40.17
2022-08-25T23:02:54.156Z,36.40
2022-08-25T23:05:43.637Z,35.78
2022-08-25T23:08:38.209Z,36.33
2022-08-25T23:11:31.584Z,38.75
2022-08-25T23:14:20.603Z,32.67
2022-08-25T23:17:11.281Z,34.25
2022-08-25T23:19:53.571Z,36.90
2022-08-25T23:22:42.508Z,37.28
2022-08-25T23:25:24.817Z,36.38
2022-08-25T23:28:13.517Z,37.08
2022-08-25T23:30:57.238Z,35.38
2022-08-25T23:33:48.512Z,36.58
2022-08-25T23:36:32.902Z,37.53
2022-08-25T23:39:21.681Z,38.80
2022-08-25T23:42:03.894Z,37.33
2022-08-25T23:44:52.496Z,38.13
2022-08-25T23:47:41.589Z,35.72
2022-08-25T23:50:31.548Z,32.10
2022-08-25T23:53:14.869Z,35.20
2022-08-25T23:56:05.589Z,47.83
2022-08-25T23:58:47.895Z,36.33
